createdAt,value
2022-09-16T00:01:00.784Z,99.90
2022-09-16T00:03:27.801Z,99.90
2022-09-16T00:05:54.662Z,99.90
2022-09-16T00:08:22.881Z,99.90
2022-09-16T00:10:49.774Z,99.90
2022-09-16T00:13:17.065Z,99.90
2022-09-16T00:15:44.587Z,99.90
2022-09-16T00:18:12.225Z,99.90
2022-09-16T00:20:46.298Z,99.90
2022-09-16T00:23:13.358Z,99.90
2022-09-16T00:25:40.204Z,99.90
2022-09-16T00:28:07.456Z,99.90
2022-09-16T00:30:34.678Z,99.90
2022-09-16T00:33:01.608Z,99.90
2022-09-16T00:35:28.661Z,99.90
2022-09-16T00:37:55.488Z,99.90
2022-09-16T00:40:23.039Z,99.90
2022-09-16T00:42:49.897Z,99.90
2022-09-16T00:45:17.996Z,99.90
2022-09-16T00:47:56.295Z,99.90
2022-09-16T00:50:31.036Z,99.90
2022-09-16T00:52:59.736Z,99.90
2022-09-16T00:55:28.779Z,99.90
2022-09-16T00:57:57.371Z,99.90
2022-09-16T01:00:24.654Z,99.90
2022-09-16T01:02:51.824Z,99.90
2022-09-16T01:05:20.438Z,99.90
2022-09-16T01:07:51.312Z,99.90
2022-09-16T01:10:19.797Z,99.90
2022-09-16T01:12:49.862Z,99.90
2022-09-16T01:15:18.091Z,99.90
2022-09-16T01:17:50.966Z,99.90
2022-09-16T01:20:36.511Z,99.90
2022-09-16T01:23:22.199Z,99.90
2022-09-16T01:25:55.066Z,99.90
2022-09-16T01:28:32.838Z,99.90
2022-09-16T01:31:02.662Z,99.90
2022-09-16T01:33:29.576Z,99.90
2022-09-16T01:36:15.287Z,99.90
2022-09-16T01:38:42.169Z,99.90
2022-09-16T01:41:15.659Z,99.90
2022-09-16T01:43:54.626Z,99.90
2022-09-16T01:46:35.410Z,99.90
2022-09-16T01:49:02.430Z,99.90
2022-09-16T01:51:38.545Z,99.90
2022-09-16T01:54:10.275Z,99.90
2022-09-16T01:56:46.415Z,99.90
2022-09-16T01:59:19.278Z,99.90
2022-09-16T02:01:50.868Z,99.90
2022-09-16T02:04:25.020Z,99.90
2022-09-16T02:06:53.273Z,99.90
2022-09-16T02:09:22.402Z,99.90
2022-09-16T02:11:55.592Z,99.90
2022-09-16T02:14:24.641Z,99.90
2022-09-16T02:16:56.425Z,99.90
2022-09-16T02:19:28.155Z,99.90
2022-09-16T02:21:56.476Z,99.90
2022-09-16T02:24:24.492Z,99.90
2022-09-16T02:26:56.050Z,99.90
2022-09-16T02:29:27.583Z,99.90
2022-09-16T02:31:57.846Z,99.90
2022-09-16T02:34:37.207Z,99.90
2022-09-16T02:37:39.445Z,99.90
2022-09-16T02:40:12.208Z,99.90
2022-09-16T02:42:39.102Z,99.90
2022-09-16T02:45:07.531Z,99.90
2022-09-16T02:47:53.373Z,99.90
2022-09-16T02:50:35.287Z,99.90
2022-09-16T02:53:04.320Z,99.90
2022-09-16T02:55:38.882Z,99.90
2022-09-16T02:58:06.611Z,99.90
2022-09-16T03:00:37.275Z,99.90
2022-09-16T03:03:04.229Z,99.90
2022-09-16T03:05:31.324Z,99.90
2022-09-16T03:07:58.518Z,99.90
2022-09-16T03:10:27.902Z,99.90
2022-09-16T03:13:08.199Z,99.90
2022-09-16T03:15:53.734Z,99.90
2022-09-16T03:18:25.878Z,99.90
2022-09-16T03:21:11.281Z,99.90
2022-09-16T03:23:47.204Z,99.90
2022-09-16T03:26:32.690Z,99.90
2022-09-16T03:29:12.506Z,99.90
2022-09-16T03:31:43.118Z,99.90
2022-09-16T03:34:14.974Z,99.90
2022-09-16T03:36:45.022Z,99.90
2022-09-16T03:39:13.317Z,99.90
2022-09-16T03:41:40.431Z,99.90
2022-09-16T03:44:07.334Z,99.90
2022-09-16T03:46:34.828Z,99.90
2022-09-16T03:49:01.754Z,99.90
2022-09-16T03:51:28.588Z,99.90
2022-09-16T03:53:55.521Z,99.90
2022-09-16T03:56:23.196Z,99.90
2022-09-16T03:58:50.496Z,99.90
2022-09-16T04:01:17.657Z,99.90
2022-09-16T04:03:44.558Z,99.90
2022-09-16T04:06:11.451Z,99.90
2022-09-16T04:08:39.742Z,99.90
2022-09-16T04:11:06.995Z,99.90
2022-09-16T04:13:34.552Z,99.90
2022-09-16T04:16:02.282Z,99.90
2022-09-16T04:18:30.500Z,99.90
2022-09-16T04:21:00.574Z,99.90
2022-09-16T04:23:28.262Z,99.90
2022-09-16T04:25:59.285Z,99.90
2022-09-16T04:28:26.628Z,99.90
2022-09-16T04:30:53.573Z,99.90
2022-09-16T04:33:20.508Z,99.90
2022-09-16T04:35:47.887Z,99.90
2022-09-16T04:38:14.740Z,99.90
2022-09-16T04:40:41.587Z,99.90
2022-09-16T04:43:09.522Z,99.90
2022-09-16T04:45:36.892Z,99.90
2022-09-16T04:48:03.835Z,99.90
2022-09-16T04:51:32.943Z,99.90
2022-09-16T04:54:00.103Z,99.90
2022-09-16T04:56:28.262Z,99.90
2022-09-16T04:58:57.394Z,99.90
2022-09-16T05:01:28.374Z,99.90
2022-09-16T05:03:57.043Z,99.90
2022-09-16T05:06:24.936Z,99.90
2022-09-16T05:08:52.849Z,99.90
2022-09-16T05:11:20.992Z,99.90
2022-09-16T05:13:48.127Z,99.90
2022-09-16T05:16:16.872Z,99.90
2022-09-16T05:18:44.732Z,99.90
2022-09-16T05:21:18.325Z,99.90
2022-09-16T05:23:46.933Z,99.90
2022-09-16T05:26:15.544Z,99.90
2022-09-16T05:28:43.228Z,99.90
2022-09-16T05:31:11.421Z,99.90
2022-09-16T05:33:42.332Z,99.90
2022-09-16T05:36:18.376Z,99.90
2022-09-16T05:39:04.666Z,99.90
2022-09-16T05:41:33.047Z,99.90
2022-09-16T05:44:00.750Z,99.90
2022-09-16T05:46:28.319Z,99.90
2022-09-16T05:48:59.301Z,99.90
2022-09-16T05:51:26.248Z,99.90
2022-09-16T05:53:53.783Z,99.90
2022-09-16T05:56:25.860Z,99.90
2022-09-16T05:58:53.932Z,99.90
2022-09-16T06:01:22.351Z,99.90
2022-09-16T06:03:50.210Z,99.90
2022-09-16T06:06:22.997Z,99.90
2022-09-16T06:08:50.834Z,99.90
2022-09-16T06:11:17.640Z,99.90
2022-09-16T06:13:44.550Z,99.90
2022-09-16T06:16:11.570Z,99.90
2022-09-16T06:18:38.472Z,99.90
2022-09-16T06:21:09.685Z,99.90
2022-09-16T06:23:37.255Z,99.90
2022-09-16T06:26:14.094Z,99.90
2022-09-16T06:28:41.181Z,99.90
2022-09-16T06:31:13.150Z,99.90
2022-09-16T06:33:40.430Z,99.90
2022-09-16T06:36:12.552Z,99.90
2022-09-16T06:38:39.645Z,99.90
2022-09-16T06:41:07.603Z,99.90
2022-09-16T06:43:35.139Z,99.90
2022-09-16T06:46:08.107Z,99.90
2022-09-16T06:48:35.201Z,99.90
2022-09-16T06:51:02.900Z,99.90
2022-09-16T06:53:30.375Z,99.90
2022-09-16T06:56:04.147Z,99.90
2022-09-16T06:58:35.106Z,99.90
2022-09-16T07:01:09.035Z,99.90
2022-09-16T07:03:41.960Z,99.90
2022-09-16T07:06:09.443Z,99.90
2022-09-16T07:08:36.908Z,99.90
2022-09-16T07:11:16.048Z,99.90
2022-09-16T07:13:43.079Z,99.90
2022-09-16T07:16:14.273Z,99.90
2022-09-16T07:18:41.918Z,99.90
2022-09-16T07:21:12.787Z,99.90
2022-09-16T07:23:40.061Z,99.90
2022-09-16T07:26:08.845Z,99.90
2022-09-16T07:28:36.422Z,99.90
2022-09-16T07:31:06.353Z,99.90
2022-09-16T07:33:36.042Z,99.90
2022-09-16T07:36:05.158Z,99.90
2022-09-16T07:38:32.631Z,99.90
2022-09-16T07:41:16.061Z,99.90
2022-09-16T07:43:43.294Z,99.90
2022-09-16T07:46:11.042Z,99.90
2022-09-16T07:48:38.290Z,99.90
2022-09-16T07:51:06.869Z,99.90
2022-09-16T07:53:34.981Z,99.90
2022-09-16T07:56:06.512Z,99.90
2022-09-16T07:58:33.833Z,99.90
2022-09-16T08:01:04.575Z,99.90
2022-09-16T08:03:33.067Z,99.90
2022-09-16T08:06:01.649Z,99.90
2022-09-16T08:08:28.528Z,99.90
2022-09-16T08:10:55.952Z,99.90
2022-09-16T08:13:22.955Z,99.90
2022-09-16T08:15:49.844Z,99.90
2022-09-16T08:18:17.019Z,99.90
2022-09-16T08:20:43.823Z,99.90
2022-09-16T08:23:11.487Z,99.90
2022-09-16T08:25:38.338Z,99.90
2022-09-16T08:28:05.651Z,99.90
2022-09-16T08:30:32.426Z,99.90
2022-09-16T08:32:59.289Z,99.90
2022-09-16T08:35:26.647Z,99.90
2022-09-16T08:37:53.506Z,99.90
2022-09-16T08:43:12.567Z,99.90
2022-09-16T08:45:48.406Z,99.90
2022-09-16T08:48:18.331Z,99.90
2022-09-16T08:50:47.065Z,99.90
2022-09-16T08:53:17.450Z,99.90
2022-09-16T08:55:46.941Z,99.90
2022-09-16T08:58:18.726Z,99.90
2022-09-16T09:00:47.337Z,99.90
2022-09-16T09:03:21.802Z,99.90
2022-09-16T09:05:51.524Z,99.90
2022-09-16T09:08:21.407Z,99.90
2022-09-16T09:11:05.927Z,99.90
2022-09-16T09:13:45.230Z,99.90
2022-09-16T09:16:18.341Z,99.90
2022-09-16T09:18:52.734Z,99.90
2022-09-16T09:21:27.941Z,99.90
2022-09-16T09:24:13.378Z,99.90
2022-09-16T09:26:50.123Z,99.90
2022-09-16T09:29:26.381Z,99.90
2022-09-16T09:32:05.523Z,99.90
2022-09-16T09:34:47.839Z,99.90
2022-09-16T09:37:14.658Z,99.90
2022-09-16T09:40:07.394Z,99.90
2022-09-16T09:42:46.580Z,99.90
2022-09-16T09:45:16.518Z,99.90
2022-09-16T09:47:47.376Z,99.90
2022-09-16T09:50:32.953Z,99.90
2022-09-16T09:53:05.940Z,99.90
2022-09-16T09:59:00.762Z,97.90
2022-09-16T10:01:27.637Z,99.90
2022-09-16T10:03:56.169Z,99.90
2022-09-16T10:06:30.854Z,98.70
2022-09-16T10:08:58.469Z,99.30
2022-09-16T10:11:27.175Z,96.20
2022-09-16T10:13:58.096Z,96.00
2022-09-16T10:16:26.776Z,97.40
2022-09-16T10:18:59.127Z,98.70
2022-09-16T10:21:26.064Z,97.80
2022-09-16T10:23:57.375Z,98.70
2022-09-16T10:26:28.220Z,96.00
2022-09-16T10:28:58.094Z,97.00
2022-09-16T10:31:29.147Z,98.50
2022-09-16T10:33:59.698Z,99.50
2022-09-16T10:36:34.312Z,99.40
2022-09-16T10:39:04.726Z,99.90
2022-09-16T10:41:41.793Z,99.50
2022-09-16T10:54:28.158Z,96.00
2022-09-16T10:56:56.536Z,97.40
2022-09-16T10:59:23.356Z,96.90
2022-09-16T11:02:05.779Z,97.90
2022-09-16T11:04:36.385Z,95.40
2022-09-16T11:07:21.881Z,92.90
2022-09-16T11:09:48.847Z,95.90
2022-09-16T11:12:24.933Z,95.10
2022-09-16T11:15:04.037Z,94.60
2022-09-16T11:17:51.212Z,95.10
2022-09-16T11:20:27.310Z,94.80
2022-09-16T11:23:08.976Z,95.00
2022-09-16T11:25:36.299Z,95.90
2022-09-16T11:28:03.038Z,91.80
2022-09-16T11:30:33.440Z,91.30
2022-09-16T11:33:20.472Z,91.90
2022-09-16T11:35:59.866Z,91.60
2022-09-16T11:38:41.196Z,92.80
2022-09-16T11:41:15.373Z,93.90
2022-09-16T11:43:56.403Z,93.00
2022-09-16T11:46:39.069Z,92.10
2022-09-16T11:49:15.461Z,90.70
2022-09-16T11:52:01.144Z,90.50
2022-09-16T11:54:46.464Z,91.70
2022-09-16T11:57:16.270Z,90.90
2022-09-16T11:59:59.427Z,91.30
2022-09-16T12:02:30.118Z,92.00
2022-09-16T12:05:02.850Z,91.60
2022-09-16T12:07:34.543Z,91.90
2022-09-16T12:10:20.032Z,92.30
2022-09-16T12:12:52.621Z,92.50
2022-09-16T12:15:23.446Z,92.00
2022-09-16T12:17:56.228Z,90.70
2022-09-16T12:20:38.456Z,91.30
2022-09-16T12:23:23.949Z,91.90
2022-09-16T12:25:59.860Z,90.80
2022-09-16T12:28:31.307Z,91.50
2022-09-16T12:34:44.501Z,92.20
2022-09-16T12:37:23.765Z,92.60
2022-09-16T12:39:50.829Z,92.70
2022-09-16T12:42:20.370Z,93.00
2022-09-16T12:45:06.205Z,91.80
2022-09-16T12:47:51.841Z,92.50
2022-09-16T12:50:28.620Z,91.20
2022-09-16T12:53:06.129Z,90.60
2022-09-16T12:55:51.764Z,91.30
2022-09-16T12:58:18.630Z,92.50
2022-09-16T13:01:04.177Z,91.90
2022-09-16T13:06:17.309Z,91.80
2022-09-16T13:08:44.454Z,92.30
2022-09-16T13:14:25.488Z,91.40
2022-09-16T13:16:54.047Z,90.50
2022-09-16T13:19:36.435Z,91.30
2022-09-16T13:22:22.542Z,92.30
2022-09-16T13:25:18.878Z,91.60
2022-09-16T13:27:54.943Z,89.20
2022-09-16T13:30:30.206Z,90.60
2022-09-16T13:33:01.696Z,90.90
2022-09-16T13:35:31.522Z,90.80
2022-09-16T13:38:00.454Z,91.50
2022-09-16T13:40:28.742Z,90.60
2022-09-16T13:43:07.534Z,90.90
2022-09-16T13:45:35.791Z,90.00
2022-09-16T13:48:06.345Z,90.60
2022-09-16T13:50:34.241Z,89.10
2022-09-16T13:53:08.780Z,90.60
2022-09-16T13:55:37.275Z,90.10
2022-09-16T13:58:27.478Z,90.00
2022-09-16T14:01:04.674Z,88.70
2022-09-16T14:03:33.417Z,90.60
2022-09-16T14:06:53.333Z,90.00
2022-09-16T14:09:20.313Z,90.90
2022-09-16T14:11:58.552Z,90.00
2022-09-16T14:17:19.494Z,90.00
2022-09-16T14:19:48.747Z,89.70
2022-09-16T14:22:21.690Z,90.30
2022-09-16T14:24:56.371Z,91.20
2022-09-16T14:27:37.782Z,90.80
2022-09-16T14:30:06.649Z,89.90
2022-09-16T14:32:35.335Z,90.20
2022-09-16T14:35:04.265Z,90.50
2022-09-16T14:37:31.911Z,90.10
2022-09-16T14:40:03.791Z,90.70
2022-09-16T14:42:31.302Z,90.30
2022-09-16T14:44:58.850Z,90.40
2022-09-16T14:47:50.082Z,89.00
2022-09-16T14:50:26.506Z,90.70
2022-09-16T14:52:58.049Z,90.20
2022-09-16T14:55:26.619Z,90.10
2022-09-16T14:57:53.675Z,90.10
2022-09-16T15:00:20.713Z,89.20
2022-09-16T15:03:01.074Z,90.20
2022-09-16T15:05:30.991Z,89.60
2022-09-16T15:08:13.740Z,87.40
2022-09-16T15:10:52.080Z,87.90
2022-09-16T15:13:23.019Z,85.80
2022-09-16T15:15:52.693Z,87.90
2022-09-16T15:18:24.417Z,89.00
2022-09-16T15:21:01.031Z,90.00
2022-09-16T15:23:28.559Z,88.90
2022-09-16T15:26:05.960Z,88.80
2022-09-16T15:28:32.890Z,89.50
2022-09-16T15:30:59.831Z,89.20
2022-09-16T15:33:29.882Z,88.60
2022-09-16T15:36:00.053Z,88.80
2022-09-16T15:38:26.885Z,90.10
2022-09-16T15:41:10.847Z,90.50
2022-09-16T15:43:39.976Z,90.40
2022-09-16T15:46:14.882Z,90.30
2022-09-16T15:48:46.317Z,90.30
2022-09-16T15:51:33.429Z,90.60
2022-09-16T15:54:07.158Z,90.50
2022-09-16T15:56:40.478Z,90.40
2022-09-16T15:59:28.216Z,90.40
2022-09-16T16:01:57.670Z,91.30
2022-09-16T16:04:34.464Z,90.80
2022-09-16T16:07:05.321Z,90.40
2022-09-16T16:09:33.685Z,90.90
2022-09-16T16:12:02.020Z,90.50
2022-09-16T16:14:32.237Z,91.00
2022-09-16T16:17:16.235Z,89.90
2022-09-16T16:19:43.916Z,90.20
2022-09-16T16:22:11.930Z,90.80
2022-09-16T16:24:39.284Z,90.80
2022-09-16T16:27:08.147Z,90.60
2022-09-16T16:29:35.106Z,91.30
2022-09-16T16:32:02.143Z,91.10
2022-09-16T16:34:31.480Z,91.20
2022-09-16T16:36:58.486Z,91.20
2022-09-16T16:39:25.779Z,91.50
2022-09-16T16:41:55.538Z,91.40
2022-09-16T16:44:23.189Z,91.30
2022-09-16T16:46:54.461Z,91.60
2022-09-16T16:49:21.814Z,91.40
2022-09-16T16:51:50.659Z,90.80
2022-09-16T16:54:20.804Z,89.80
2022-09-16T16:56:48.508Z,90.60
2022-09-16T16:59:17.844Z,90.90
2022-09-16T17:01:48.805Z,91.30
2022-09-16T17:04:16.310Z,91.30
2022-09-16T17:06:43.475Z,90.60
2022-09-16T17:09:15.091Z,91.00
2022-09-16T17:11:53.931Z,91.40
2022-09-16T17:14:21.410Z,91.20
2022-09-16T17:16:48.998Z,91.30
2022-09-16T17:19:17.478Z,91.50
2022-09-16T17:21:45.184Z,90.70
2022-09-16T17:24:12.765Z,91.20
2022-09-16T17:26:39.713Z,91.30
2022-09-16T17:29:14.790Z,91.40
2022-09-16T17:31:43.090Z,91.10
2022-09-16T17:34:11.546Z,91.10
2022-09-16T17:36:45.950Z,91.30
2022-09-16T17:39:15.198Z,91.50
2022-09-16T17:41:43.601Z,91.30
2022-09-16T17:44:11.351Z,91.20
2022-09-16T17:46:38.808Z,91.60
2022-09-16T17:49:07.704Z,91.60
2022-09-16T17:51:34.854Z,91.90
2022-09-16T17:54:03.330Z,92.00
2022-09-16T17:56:30.475Z,92.20
2022-09-16T17:58:57.456Z,92.20
2022-09-16T18:01:25.891Z,92.30
2022-09-16T18:03:53.911Z,92.20
2022-09-16T18:06:30.888Z,92.40
2022-09-16T18:09:01.943Z,92.60
2022-09-16T18:11:28.785Z,92.50
2022-09-16T18:13:56.706Z,92.90
2022-09-16T18:16:24.350Z,92.80
2022-09-16T18:18:52.390Z,92.70
2022-09-16T18:21:19.844Z,92.60
2022-09-16T18:23:49.669Z,92.70
2022-09-16T18:26:19.269Z,92.80
2022-09-16T18:29:08.581Z,92.80
2022-09-16T18:31:34.873Z,92.90
2022-09-16T18:34:01.662Z,92.80
2022-09-16T18:36:30.599Z,93.00
2022-09-16T18:38:58.278Z,93.10
2022-09-16T18:41:29.437Z,93.20
2022-09-16T18:44:00.383Z,93.20
2022-09-16T18:46:29.016Z,93.30
2022-09-16T18:48:56.209Z,93.40
2022-09-16T18:51:25.348Z,93.50
2022-09-16T18:53:56.216Z,93.50
2022-09-16T18:56:25.172Z,93.60
2022-09-16T18:59:17.256Z,93.50
2022-09-16T19:01:40.439Z,93.30
2022-09-16T19:04:08.798Z,93.20
2022-09-16T19:06:37.176Z,93.30
2022-09-16T19:09:06.282Z,93.40
2022-09-16T19:11:33.962Z,93.40
2022-09-16T19:14:01.003Z,93.60
2022-09-16T19:16:28.045Z,93.30
2022-09-16T19:18:55.587Z,93.40
2022-09-16T19:21:23.165Z,93.40
2022-09-16T19:23:54.444Z,93.40
2022-09-16T19:26:21.252Z,93.60
2022-09-16T19:28:48.282Z,93.60
2022-09-16T19:31:15.201Z,93.60
2022-09-16T19:33:42.500Z,93.70
2022-09-16T19:36:10.339Z,93.80
2022-09-16T19:38:37.154Z,93.90
2022-09-16T19:41:06.689Z,94.00
2022-09-16T19:43:33.813Z,94.00
2022-09-16T19:46:05.317Z,94.00
2022-09-16T19:48:34.411Z,94.20
2022-09-16T19:51:01.270Z,94.40
2022-09-16T19:53:28.176Z,94.30
2022-09-16T19:56:02.707Z,94.50
2022-09-16T19:58:31.095Z,94.50
2022-09-16T20:01:02.421Z,94.50
2022-09-16T20:03:30.161Z,94.70
2022-09-16T20:06:10.611Z,94.60
2022-09-16T20:08:38.531Z,94.60
2022-09-16T20:11:10.119Z,94.70
2022-09-16T20:13:38.276Z,94.60
2022-09-16T20:16:06.864Z,94.70
2022-09-16T20:18:34.505Z,94.70
2022-09-16T20:21:05.525Z,94.70
2022-09-16T20:23:33.077Z,94.80
2022-09-16T20:26:00.637Z,94.80
2022-09-16T20:28:38.233Z,94.70
2022-09-16T20:31:05.796Z,94.70
2022-09-16T20:33:33.478Z,94.70
2022-09-16T20:36:07.865Z,94.70
2022-09-16T20:38:34.713Z,94.90
2022-09-16T20:41:08.895Z,94.70
2022-09-16T20:43:35.837Z,94.70
2022-09-16T20:46:03.981Z,94.70
2022-09-16T20:48:30.844Z,94.90
2022-09-16T20:50:57.634Z,95.00
2022-09-16T20:53:24.533Z,95.30
2022-09-16T20:55:51.354Z,95.20
2022-09-16T20:58:18.417Z,95.40
2022-09-16T21:00:45.325Z,95.40
2022-09-16T21:03:14.189Z,95.30
2022-09-16T21:05:41.133Z,95.30
2022-09-16T21:08:07.979Z,95.40
2022-09-16T21:10:38.397Z,95.60
2022-09-16T21:13:06.602Z,95.50
2022-09-16T21:15:33.411Z,95.50
2022-09-16T21:18:00.926Z,95.50
2022-09-16T21:20:27.839Z,95.40
2022-09-16T21:22:54.704Z,95.40
2022-09-16T21:25:24.842Z,95.50
2022-09-16T21:27:51.691Z,95.40
2022-09-16T21:30:19.128Z,95.30
2022-09-16T21:32:46.082Z,95.50
2022-09-16T21:35:12.982Z,95.60
2022-09-16T21:37:39.846Z,95.80
2022-09-16T21:40:10.373Z,95.60
2022-09-16T21:42:37.567Z,95.70
2022-09-16T21:45:04.735Z,95.50
2022-09-16T21:47:32.399Z,95.80
2022-09-16T21:50:00.886Z,95.80
2022-09-16T21:52:27.722Z,95.90
2022-09-16T21:54:54.648Z,96.00
2022-09-16T21:57:23.951Z,96.10
2022-09-16T21:59:51.051Z,96.00
2022-09-16T22:02:17.969Z,96.00
2022-09-16T22:04:44.765Z,96.00
2022-09-16T22:07:11.638Z,96.00
2022-09-16T22:09:38.634Z,96.00
2022-09-16T22:12:07.037Z,95.90
2022-09-16T22:14:33.869Z,95.90
2022-09-16T22:17:00.745Z,95.90
2022-09-16T22:19:27.598Z,95.90
2022-09-16T22:21:54.559Z,96.00
2022-09-16T22:24:21.613Z,95.90
2022-09-16T22:26:49.760Z,95.90
2022-09-16T22:29:16.545Z,95.80
2022-09-16T22:31:43.639Z,95.80
2022-09-16T22:34:10.689Z,95.90
2022-09-16T22:36:38.261Z,95.70
2022-09-16T22:39:07.618Z,95.70
2022-09-16T22:41:34.700Z,95.80
2022-09-16T22:44:21.915Z,95.80
2022-09-16T22:46:48.901Z,95.80
2022-09-16T22:49:15.833Z,95.70
2022-09-16T22:51:42.689Z,95.70
2022-09-16T22:54:11.024Z,95.70
2022-09-16T22:56:37.889Z,95.90
2022-09-16T22:59:05.536Z,95.90
2022-09-16T23:01:34.944Z,95.80
2022-09-16T23:04:03.064Z,95.80
2022-09-16T23:06:32.199Z,95.90
2022-09-16T23:08:59.467Z,95.80
2022-09-16T23:11:29.506Z,95.90
2022-09-16T23:13:56.922Z,95.90
2022-09-16T23:16:27.069Z,96.00
2022-09-16T23:18:55.728Z,96.30
2022-09-16T23:21:23.110Z,96.10
2022-09-16T23:23:51.594Z,96.10
2022-09-16T23:26:29.970Z,96.30
2022-09-16T23:28:57.816Z,96.10
2022-09-16T23:31:26.180Z,96.20
2022-09-16T23:33:53.564Z,96.50
2022-09-16T23:36:20.621Z,96.70
2022-09-16T23:38:48.787Z,96.50
2022-09-16T23:41:23.218Z,96.80
2022-09-16T23:43:50.462Z,97.00
2022-09-16T23:46:18.276Z,96.70
2022-09-16T23:48:45.413Z,96.60
2022-09-16T23:51:13.078Z,97.00
2022-09-16T23:53:42.314Z,97.00
2022-09-16T23:56:11.277Z,97.40
2022-09-16T23:58:38.207Z,97.10
